sensor_id;sensor_type;location;lat;lon;timestamp;P1;durP1;ratioP1;P2;durP2;ratioP2
62633;SDS011;48704;50.534;6.442;2022-09-03T00:01:05;2.45;;;1.25;;
62633;SDS011;48704;50.534;6.442;2022-09-03T00:03:41;2.28;;;1.30;;
62633;SDS011;48704;50.534;6.442;2022-09-03T00:06:25;3.38;;;1.30;;
62633;SDS011;48704;50.534;6.442;2022-09-03T00:09:11;2.45;;;1.40;;
62633;SDS011;48704;50.534;6.442;2022-09-03T00:11:54;2.25;;;1.20;;
62633;SDS011;48704;50.534;6.442;2022-09-03T00:14:40;2.85;;;1.63;;
62633;SDS011;48704;50.534;6.442;2022-09-03T00:17:24;3.00;;;1.40;;
62633;SDS011;48704;50.534;6.442;2022-09-03T00:20:27;3.95;;;1.25;;
62633;SDS011;48704;50.534;6.442;2022-09-03T00:23:15;3.50;;;1.55;;
62633;SDS011;48704;50.534;6.442;2022-09-03T00:31:40;4.82;;;1.10;;
62633;SDS011;48704;50.534;6.442;2022-09-03T00:34:27;2.53;;;1.20;;
62633;SDS011;48704;50.534;6.442;2022-09-03T00:37:07;1.77;;;1.27;;
62633;SDS011;48704;50.534;6.442;2022-09-03T00:39:34;2.05;;;1.13;;
62633;SDS011;48704;50.534;6.442;2022-09-03T00:50:55;2.35;;;1.15;;
62633;SDS011;48704;50.534;6.442;2022-09-03T00:56:51;2.83;;;1.20;;
62633;SDS011;48704;50.534;6.442;2022-09-03T01:03:05;2.65;;;1.50;;
62633;SDS011;48704;50.534;6.442;2022-09-03T01:14:41;2.78;;;1.10;;
62633;SDS011;48704;50.534;6.442;2022-09-03T01:32:18;2.30;;;1.20;;
62633;SDS011;48704;50.534;6.442;2022-09-03T01:50:39;2.97;;;1.20;;
62633;SDS011;48704;50.534;6.442;2022-09-03T01:53:24;2.85;;;1.30;;
62633;SDS011;48704;50.534;6.442;2022-09-03T02:02:00;1.98;;;1.10;;
62633;SDS011;48704;50.534;6.442;2022-09-03T02:04:39;2.75;;;1.23;;
62633;SDS011;48704;50.534;6.442;2022-09-03T02:10:14;2.03;;;1.20;;
62633;SDS011;48704;50.534;6.442;2022-09-03T02:13:33;2.47;;;1.30;;
62633;SDS011;48704;50.534;6.442;2022-09-03T02:15:56;3.20;;;1.30;;
62633;SDS011;48704;50.534;6.442;2022-09-03T02:18:43;2.25;;;1.38;;
62633;SDS011;48704;50.534;6.442;2022-09-03T02:21:32;2.72;;;1.52;;
62633;SDS011;48704;50.534;6.442;2022-09-03T02:24:14;2.83;;;1.35;;
62633;SDS011;48704;50.534;6.442;2022-09-03T02:26:54;3.33;;;1.30;;
62633;SDS011;48704;50.534;6.442;2022-09-03T02:29:26;3.60;;;1.50;;
62633;SDS011;48704;50.534;6.442;2022-09-03T02:32:26;3.30;;;1.27;;
62633;SDS011;48704;50.534;6.442;2022-09-03T02:34:52;4.60;;;1.30;;
62633;SDS011;48704;50.534;6.442;2022-09-03T02:37:21;3.22;;;1.52;;
62633;SDS011;48704;50.534;6.442;2022-09-03T02:39:50;3.42;;;1.40;;
62633;SDS011;48704;50.534;6.442;2022-09-03T02:42:16;4.05;;;1.20;;
62633;SDS011;48704;50.534;6.442;2022-09-03T02:44:50;1.77;;;1.10;;
62633;SDS011;48704;50.534;6.442;2022-09-03T02:47:27;2.75;;;1.42;;
62633;SDS011;48704;50.534;6.442;2022-09-03T02:50:01;2.30;;;1.40;;
62633;SDS011;48704;50.534;6.442;2022-09-03T02:52:32;2.03;;;1.00;;
62633;SDS011;48704;50.534;6.442;2022-09-03T02:55:03;2.63;;;1.30;;
62633;SDS011;48704;50.534;6.442;2022-09-03T02:57:43;3.45;;;1.33;;
62633;SDS011;48704;50.534;6.442;2022-09-03T03:00:14;2.45;;;1.02;;
62633;SDS011;48704;50.534;6.442;2022-09-03T03:02:43;2.95;;;1.65;;
62633;SDS011;48704;50.534;6.442;2022-09-03T03:05:34;4.30;;;1.25;;
62633;SDS011;48704;50.534;6.442;2022-09-03T03:08:16;2.78;;;1.30;;
62633;SDS011;48704;50.534;6.442;2022-09-03T03:10:59;2.78;;;1.45;;
62633;SDS011;48704;50.534;6.442;2022-09-03T03:13:31;3.83;;;1.30;;
62633;SDS011;48704;50.534;6.442;2022-09-03T03:16:08;2.38;;;1.40;;
62633;SDS011;48704;50.534;6.442;2022-09-03T03:18:46;3.13;;;1.60;;
62633;SDS011;48704;50.534;6.442;2022-09-03T03:21:20;3.22;;;1.15;;
62633;SDS011;48704;50.534;6.442;2022-09-03T03:24:04;2.35;;;1.23;;
62633;SDS011;48704;50.534;6.442;2022-09-03T03:26:43;2.03;;;1.20;;
62633;SDS011;48704;50.534;6.442;2022-09-03T03:29:22;2.28;;;1.30;;
62633;SDS011;48704;50.534;6.442;2022-09-03T03:32:01;2.55;;;1.20;;
62633;SDS011;48704;50.534;6.442;2022-09-03T03:34:27;4.00;;;1.77;;
62633;SDS011;48704;50.534;6.442;2022-09-03T03:36:53;2.08;;;1.17;;
62633;SDS011;48704;50.534;6.442;2022-09-03T03:39:22;2.70;;;1.20;;
62633;SDS011;48704;50.534;6.442;2022-09-03T03:41:59;1.80;;;1.15;;
62633;SDS011;48704;50.534;6.442;2022-09-03T03:44:28;4.00;;;1.30;;
62633;SDS011;48704;50.534;6.442;2022-09-03T03:46:59;3.67;;;1.40;;
62633;SDS011;48704;50.534;6.442;2022-09-03T03:49:31;3.58;;;1.60;;
62633;SDS011;48704;50.534;6.442;2022-09-03T03:51:59;3.13;;;1.35;;
62633;SDS011;48704;50.534;6.442;2022-09-03T03:54:27;2.42;;;1.33;;
62633;SDS011;48704;50.534;6.442;2022-09-03T03:56:52;2.40;;;1.40;;
62633;SDS011;48704;50.534;6.442;2022-09-03T03:59:17;2.53;;;1.40;;
62633;SDS011;48704;50.534;6.442;2022-09-03T04:01:42;2.95;;;1.25;;
62633;SDS011;48704;50.534;6.442;2022-09-03T04:04:08;2.67;;;1.40;;
62633;SDS011;48704;50.534;6.442;2022-09-03T04:06:33;2.08;;;1.35;;
62633;SDS011;48704;50.534;6.442;2022-09-03T04:08:58;3.30;;;1.70;;
62633;SDS011;48704;50.534;6.442;2022-09-03T04:11:24;3.17;;;1.50;;
62633;SDS011;48704;50.534;6.442;2022-09-03T04:13:50;3.28;;;1.30;;
62633;SDS011;48704;50.534;6.442;2022-09-03T04:16:21;2.58;;;1.38;;
62633;SDS011;48704;50.534;6.442;2022-09-03T04:18:48;2.88;;;1.40;;
62633;SDS011;48704;50.534;6.442;2022-09-03T04:21:14;2.67;;;1.40;;
62633;SDS011;48704;50.534;6.442;2022-09-03T04:23:42;2.35;;;1.20;;
62633;SDS011;48704;50.534;6.442;2022-09-03T04:26:11;3.92;;;1.48;;
62633;SDS011;48704;50.534;6.442;2022-09-03T04:28:37;3.22;;;1.48;;
62633;SDS011;48704;50.534;6.442;2022-09-03T04:31:06;2.63;;;1.40;;
62633;SDS011;48704;50.534;6.442;2022-09-03T04:33:33;2.63;;;1.38;;
62633;SDS011;48704;50.534;6.442;2022-09-03T04:36:03;3.58;;;1.70;;
62633;SDS011;48704;50.534;6.442;2022-09-03T04:38:31;2.53;;;1.35;;
62633;SDS011;48704;50.534;6.442;2022-09-03T04:40:57;2.72;;;1.40;;
62633;SDS011;48704;50.534;6.442;2022-09-03T04:43:23;3.28;;;2.13;;
62633;SDS011;48704;50.534;6.442;2022-09-03T04:45:49;3.40;;;1.58;;
62633;SDS011;48704;50.534;6.442;2022-09-03T04:48:14;2.22;;;1.20;;
62633;SDS011;48704;50.534;6.442;2022-09-03T04:50:40;2.13;;;1.30;;
62633;SDS011;48704;50.534;6.442;2022-09-03T04:53:06;2.22;;;1.20;;
62633;SDS011;48704;50.534;6.442;2022-09-03T04:55:32;4.32;;;1.50;;
62633;SDS011;48704;50.534;6.442;2022-09-03T04:58:01;3.33;;;1.48;;
62633;SDS011;48704;50.534;6.442;2022-09-03T05:00:26;2.45;;;1.48;;
62633;SDS011;48704;50.534;6.442;2022-09-03T05:02:52;2.78;;;1.58;;
62633;SDS011;48704;50.534;6.442;2022-09-03T05:05:17;3.35;;;1.90;;
62633;SDS011;48704;50.534;6.442;2022-09-03T05:07:43;2.17;;;1.38;;
62633;SDS011;48704;50.534;6.442;2022-09-03T05:10:09;2.75;;;1.27;;
62633;SDS011;48704;50.534;6.442;2022-09-03T05:12:45;4.20;;;1.70;;
62633;SDS011;48704;50.534;6.442;2022-09-03T05:15:12;3.13;;;1.27;;
62633;SDS011;48704;50.534;6.442;2022-09-03T05:17:38;3.97;;;1.80;;
62633;SDS011;48704;50.534;6.442;2022-09-03T05:20:04;2.63;;;1.45;;
62633;SDS011;48704;50.534;6.442;2022-09-03T05:22:32;2.03;;;1.23;;
62633;SDS011;48704;50.534;6.442;2022-09-03T05:24:58;2.55;;;1.45;;
62633;SDS011;48704;50.534;6.442;2022-09-03T05:27:23;1.98;;;1.38;;
62633;SDS011;48704;50.534;6.442;2022-09-03T05:29:49;4.00;;;1.70;;
62633;SDS011;48704;50.534;6.442;2022-09-03T05:32:14;2.63;;;1.75;;
62633;SDS011;48704;50.534;6.442;2022-09-03T05:34:41;2.13;;;1.48;;
62633;SDS011;48704;50.534;6.442;2022-09-03T05:37:07;2.75;;;1.60;;
62633;SDS011;48704;50.534;6.442;2022-09-03T05:39:36;3.28;;;1.50;;
62633;SDS011;48704;50.534;6.442;2022-09-03T05:42:01;1.92;;;1.25;;
62633;SDS011;48704;50.534;6.442;2022-09-03T05:44:26;4.00;;;1.48;;
62633;SDS011;48704;50.534;6.442;2022-09-03T05:46:52;3.10;;;1.65;;
62633;SDS011;48704;50.534;6.442;2022-09-03T05:49:17;2.38;;;1.50;;
62633;SDS011;48704;50.534;6.442;2022-09-03T05:51:42;4.13;;;1.70;;
62633;SDS011;48704;50.534;6.442;2022-09-03T05:54:08;2.78;;;1.67;;
62633;SDS011;48704;50.534;6.442;2022-09-03T05:56:35;2.55;;;1.40;;
62633;SDS011;48704;50.534;6.442;2022-09-03T05:59:04;3.75;;;1.73;;
62633;SDS011;48704;50.534;6.442;2022-09-03T06:01:39;4.43;;;1.70;;
62633;SDS011;48704;50.534;6.442;2022-09-03T06:04:07;2.88;;;1.55;;
62633;SDS011;48704;50.534;6.442;2022-09-03T06:06:43;3.03;;;1.40;;
62633;SDS011;48704;50.534;6.442;2022-09-03T06:09:13;5.03;;;1.70;;
62633;SDS011;48704;50.534;6.442;2022-09-03T06:11:42;3.13;;;1.60;;
62633;SDS011;48704;50.534;6.442;2022-09-03T06:14:10;2.95;;;1.50;;
62633;SDS011;48704;50.534;6.442;2022-09-03T06:16:37;2.70;;;1.50;;
62633;SDS011;48704;50.534;6.442;2022-09-03T06:19:04;3.63;;;1.90;;
62633;SDS011;48704;50.534;6.442;2022-09-03T06:21:39;3.30;;;1.60;;
62633;SDS011;48704;50.534;6.442;2022-09-03T06:24:25;3.42;;;1.73;;
62633;SDS011;48704;50.534;6.442;2022-09-03T06:26:51;4.90;;;1.75;;
62633;SDS011;48704;50.534;6.442;2022-09-03T06:29:16;3.47;;;1.63;;
62633;SDS011;48704;50.534;6.442;2022-09-03T06:31:44;2.72;;;1.70;;
62633;SDS011;48704;50.534;6.442;2022-09-03T06:34:09;4.32;;;1.98;;
62633;SDS011;48704;50.534;6.442;2022-09-03T06:36:34;3.95;;;1.50;;
62633;SDS011;48704;50.534;6.442;2022-09-03T06:39:00;2.35;;;1.52;;
62633;SDS011;48704;50.534;6.442;2022-09-03T06:41:26;5.88;;;1.90;;
62633;SDS011;48704;50.534;6.442;2022-09-03T06:43:56;2.72;;;1.65;;
62633;SDS011;48704;50.534;6.442;2022-09-03T06:46:27;3.75;;;1.48;;
62633;SDS011;48704;50.534;6.442;2022-09-03T06:48:53;4.97;;;1.52;;
62633;SDS011;48704;50.534;6.442;2022-09-03T06:51:20;5.10;;;1.73;;
62633;SDS011;48704;50.534;6.442;2022-09-03T06:53:48;2.78;;;1.60;;
62633;SDS011;48704;50.534;6.442;2022-09-03T06:56:22;2.45;;;1.52;;
62633;SDS011;48704;50.534;6.442;2022-09-03T06:58:50;2.47;;;1.65;;
62633;SDS011;48704;50.534;6.442;2022-09-03T07:01:18;3.97;;;1.65;;
62633;SDS011;48704;50.534;6.442;2022-09-03T07:03:46;2.72;;;1.73;;
62633;SDS011;48704;50.534;6.442;2022-09-03T07:06:16;3.28;;;1.77;;
62633;SDS011;48704;50.534;6.442;2022-09-03T07:08:43;5.25;;;2.00;;
62633;SDS011;48704;50.534;6.442;2022-09-03T07:11:11;4.35;;;2.22;;
62633;SDS011;48704;50.534;6.442;2022-09-03T07:13:39;2.90;;;1.80;;
62633;SDS011;48704;50.534;6.442;2022-09-03T07:18:33;4.63;;;1.85;;
62633;SDS011;48704;50.534;6.442;2022-09-03T07:21:00;2.72;;;1.70;;
62633;SDS011;48704;50.534;6.442;2022-09-03T07:23:27;4.10;;;1.92;;
62633;SDS011;48704;50.534;6.442;2022-09-03T07:25:57;4.18;;;1.70;;
62633;SDS011;48704;50.534;6.442;2022-09-03T07:28:24;3.40;;;1.77;;
62633;SDS011;48704;50.534;6.442;2022-09-03T07:30:53;2.90;;;1.60;;
62633;SDS011;48704;50.534;6.442;2022-09-03T07:33:19;3.03;;;1.70;;
62633;SDS011;48704;50.534;6.442;2022-09-03T07:35:45;2.70;;;1.80;;
62633;SDS011;48704;50.534;6.442;2022-09-03T07:38:11;4.25;;;1.80;;
62633;SDS011;48704;50.534;6.442;2022-09-03T07:40:41;3.47;;;1.85;;
62633;SDS011;48704;50.534;6.442;2022-09-03T07:43:06;4.18;;;1.85;;
62633;SDS011;48704;50.534;6.442;2022-09-03T07:45:31;2.47;;;1.80;;
62633;SDS011;48704;50.534;6.442;2022-09-03T07:47:57;3.88;;;2.05;;
62633;SDS011;48704;50.534;6.442;2022-09-03T07:50:23;3.85;;;1.83;;
62633;SDS011;48704;50.534;6.442;2022-09-03T07:52:48;3.53;;;1.85;;
62633;SDS011;48704;50.534;6.442;2022-09-03T07:55:19;4.90;;;2.00;;
62633;SDS011;48704;50.534;6.442;2022-09-03T07:57:45;4.65;;;2.13;;
62633;SDS011;48704;50.534;6.442;2022-09-03T08:00:10;5.00;;;2.63;;
62633;SDS011;48704;50.534;6.442;2022-09-03T08:02:37;4.65;;;2.33;;
62633;SDS011;48704;50.534;6.442;2022-09-03T08:05:02;2.95;;;2.00;;
62633;SDS011;48704;50.534;6.442;2022-09-03T08:07:28;3.25;;;2.00;;
62633;SDS011;48704;50.534;6.442;2022-09-03T08:09:54;4.57;;;1.70;;
62633;SDS011;48704;50.534;6.442;2022-09-03T08:12:19;4.22;;;2.00;;
62633;SDS011;48704;50.534;6.442;2022-09-03T08:14:45;4.05;;;2.10;;
62633;SDS011;48704;50.534;6.442;2022-09-03T08:17:10;4.43;;;1.92;;
62633;SDS011;48704;50.534;6.442;2022-09-03T08:19:37;4.35;;;2.05;;
62633;SDS011;48704;50.534;6.442;2022-09-03T08:22:04;4.28;;;2.05;;
62633;SDS011;48704;50.534;6.442;2022-09-03T08:24:29;3.75;;;2.00;;
62633;SDS011;48704;50.534;6.442;2022-09-03T08:26:55;2.90;;;2.00;;
62633;SDS011;48704;50.534;6.442;2022-09-03T08:29:20;4.07;;;2.03;;
62633;SDS011;48704;50.534;6.442;2022-09-03T08:31:46;3.20;;;1.80;;
62633;SDS011;48704;50.534;6.442;2022-09-03T08:34:11;4.93;;;2.38;;
62633;SDS011;48704;50.534;6.442;2022-09-03T08:36:38;3.78;;;2.10;;
62633;SDS011;48704;50.534;6.442;2022-09-03T08:39:07;5.18;;;2.35;;
62633;SDS011;48704;50.534;6.442;2022-09-03T08:44:28;4.80;;;2.40;;
62633;SDS011;48704;50.534;6.442;2022-09-03T08:47:05;3.38;;;2.10;;
62633;SDS011;48704;50.534;6.442;2022-09-03T08:49:52;3.33;;;2.03;;
62633;SDS011;48704;50.534;6.442;2022-09-03T08:52:40;4.65;;;2.35;;
62633;SDS011;48704;50.534;6.442;2022-09-03T08:55:26;3.10;;;2.35;;
62633;SDS011;48704;50.534;6.442;2022-09-03T09:00:38;5.15;;;2.85;;
62633;SDS011;48704;50.534;6.442;2022-09-03T09:05:53;3.85;;;2.92;;
62633;SDS011;48704;50.534;6.442;2022-09-03T09:08:32;4.72;;;2.83;;
62633;SDS011;48704;50.534;6.442;2022-09-03T09:11:12;3.72;;;2.90;;
62633;SDS011;48704;50.534;6.442;2022-09-03T09:14:03;3.95;;;2.33;;
62633;SDS011;48704;50.534;6.442;2022-09-03T09:16:56;4.65;;;2.80;;
62633;SDS011;48704;50.534;6.442;2022-09-03T09:19:35;3.90;;;2.90;;
62633;SDS011;48704;50.534;6.442;2022-09-03T09:22:10;4.93;;;2.80;;
62633;SDS011;48704;50.534;6.442;2022-09-03T09:24:44;4.13;;;2.80;;
62633;SDS011;48704;50.534;6.442;2022-09-03T09:27:15;6.50;;;3.30;;
62633;SDS011;48704;50.534;6.442;2022-09-03T09:29:41;7.32;;;3.03;;
62633;SDS011;48704;50.534;6.442;2022-09-03T09:32:10;5.60;;;3.10;;
62633;SDS011;48704;50.534;6.442;2022-09-03T09:34:38;3.97;;;3.05;;
62633;SDS011;48704;50.534;6.442;2022-09-03T09:37:06;3.95;;;2.80;;
62633;SDS011;48704;50.534;6.442;2022-09-03T09:39:34;4.72;;;3.20;;
62633;SDS011;48704;50.534;6.442;2022-09-03T09:42:10;4.13;;;2.88;;
62633;SDS011;48704;50.534;6.442;2022-09-03T09:44:36;5.10;;;3.30;;
62633;SDS011;48704;50.534;6.442;2022-09-03T09:47:07;5.43;;;3.38;;
62633;SDS011;48704;50.534;6.442;2022-09-03T09:52:17;4.20;;;2.90;;
62633;SDS011;48704;50.534;6.442;2022-09-03T09:54:43;4.38;;;2.90;;
62633;SDS011;48704;50.534;6.442;2022-09-03T09:57:13;5.25;;;3.42;;
62633;SDS011;48704;50.534;6.442;2022-09-03T09:59:46;4.68;;;2.85;;
62633;SDS011;48704;50.534;6.442;2022-09-03T10:02:22;3.95;;;2.92;;
62633;SDS011;48704;50.534;6.442;2022-09-03T10:04:51;4.45;;;2.88;;
62633;SDS011;48704;50.534;6.442;2022-09-03T10:07:21;5.68;;;3.30;;
62633;SDS011;48704;50.534;6.442;2022-09-03T10:10:00;5.47;;;3.17;;
62633;SDS011;48704;50.534;6.442;2022-09-03T10:12:32;5.13;;;3.33;;
62633;SDS011;48704;50.534;6.442;2022-09-03T10:15:17;3.88;;;2.75;;
62633;SDS011;48704;50.534;6.442;2022-09-03T10:23:18;5.28;;;3.28;;
62633;SDS011;48704;50.534;6.442;2022-09-03T10:28:17;4.03;;;3.15;;
62633;SDS011;48704;50.534;6.442;2022-09-03T10:33:25;4.03;;;3.00;;
62633;SDS011;48704;50.534;6.442;2022-09-03T10:36:03;5.63;;;3.40;;
62633;SDS011;48704;50.534;6.442;2022-09-03T10:38:39;5.68;;;3.22;;
62633;SDS011;48704;50.534;6.442;2022-09-03T10:41:17;4.53;;;2.85;;
62633;SDS011;48704;50.534;6.442;2022-09-03T10:46:54;3.88;;;2.90;;
62633;SDS011;48704;50.534;6.442;2022-09-03T10:55:06;4.63;;;2.88;;
62633;SDS011;48704;50.534;6.442;2022-09-03T11:01:01;3.70;;;2.50;;
62633;SDS011;48704;50.534;6.442;2022-09-03T11:03:42;4.53;;;2.60;;
62633;SDS011;48704;50.534;6.442;2022-09-03T11:06:19;5.22;;;3.00;;
62633;SDS011;48704;50.534;6.442;2022-09-03T11:08:58;4.18;;;2.70;;
62633;SDS011;48704;50.534;6.442;2022-09-03T11:11:32;5.22;;;3.10;;
62633;SDS011;48704;50.534;6.442;2022-09-03T11:14:04;4.15;;;2.97;;
62633;SDS011;48704;50.534;6.442;2022-09-03T11:16:33;2.97;;;2.17;;
62633;SDS011;48704;50.534;6.442;2022-09-03T11:19:06;3.33;;;2.10;;
62633;SDS011;48704;50.534;6.442;2022-09-03T11:21:35;4.13;;;2.28;;
62633;SDS011;48704;50.534;6.442;2022-09-03T11:26:42;3.25;;;2.20;;
62633;SDS011;48704;50.534;6.442;2022-09-03T11:34:24;3.92;;;2.35;;
62633;SDS011;48704;50.534;6.442;2022-09-03T11:37:06;3.40;;;2.50;;
62633;SDS011;48704;50.534;6.442;2022-09-03T11:39:44;3.60;;;2.42;;
62633;SDS011;48704;50.534;6.442;2022-09-03T11:42:28;4.53;;;2.47;;
62633;SDS011;48704;50.534;6.442;2022-09-03T11:47:48;3.45;;;2.05;;
62633;SDS011;48704;50.534;6.442;2022-09-03T11:50:17;3.15;;;2.22;;
62633;SDS011;48704;50.534;6.442;2022-09-03T11:52:46;3.00;;;2.20;;
62633;SDS011;48704;50.534;6.442;2022-09-03T11:55:23;3.22;;;2.20;;
62633;SDS011;48704;50.534;6.442;2022-09-03T12:00:21;2.90;;;1.90;;
62633;SDS011;48704;50.534;6.442;2022-09-03T12:02:49;2.92;;;2.10;;
62633;SDS011;48704;50.534;6.442;2022-09-03T12:05:26;3.72;;;1.80;;
62633;SDS011;48704;50.534;6.442;2022-09-03T12:08:16;3.20;;;2.10;;
62633;SDS011;48704;50.534;6.442;2022-09-03T12:14:01;4.55;;;2.20;;
62633;SDS011;48704;50.534;6.442;2022-09-03T12:16:50;4.90;;;1.90;;
62633;SDS011;48704;50.534;6.442;2022-09-03T12:19:26;5.43;;;2.20;;
62633;SDS011;48704;50.534;6.442;2022-09-03T12:22:01;5.20;;;2.20;;
62633;SDS011;48704;50.534;6.442;2022-09-03T12:24:29;3.17;;;1.95;;
62633;SDS011;48704;50.534;6.442;2022-09-03T12:27:01;3.55;;;2.10;;
62633;SDS011;48704;50.534;6.442;2022-09-03T12:29:28;2.53;;;1.58;;
62633;SDS011;48704;50.534;6.442;2022-09-03T12:31:55;2.80;;;1.60;;
62633;SDS011;48704;50.534;6.442;2022-09-03T12:34:30;3.20;;;1.75;;
62633;SDS011;48704;50.534;6.442;2022-09-03T12:36:55;2.63;;;1.80;;
62633;SDS011;48704;50.534;6.442;2022-09-03T12:39:22;5.72;;;2.42;;
62633;SDS011;48704;50.534;6.442;2022-09-03T12:42:05;3.55;;;2.00;;
62633;SDS011;48704;50.534;6.442;2022-09-03T12:47:02;2.70;;;1.80;;
62633;SDS011;48704;50.534;6.442;2022-09-03T12:49:41;2.53;;;1.13;;
62633;SDS011;48704;50.534;6.442;2022-09-03T12:54:56;1.80;;;1.00;;
62633;SDS011;48704;50.534;6.442;2022-09-03T12:57:25;1.85;;;1.13;;
62633;SDS011;48704;50.534;6.442;2022-09-03T12:59:58;2.55;;;1.33;;
62633;SDS011;48704;50.534;6.442;2022-09-03T13:02:33;1.70;;;1.10;;
62633;SDS011;48704;50.534;6.442;2022-09-03T13:05:14;1.92;;;1.23;;
62633;SDS011;48704;50.534;6.442;2022-09-03T13:07:44;2.83;;;1.75;;
62633;SDS011;48704;50.534;6.442;2022-09-03T13:13:21;5.32;;;1.52;;
62633;SDS011;48704;50.534;6.442;2022-09-03T13:21:09;2.20;;;1.40;;
62633;SDS011;48704;50.534;6.442;2022-09-03T13:32:52;3.03;;;1.80;;
62633;SDS011;48704;50.534;6.442;2022-09-03T13:35:34;3.30;;;1.50;;
62633;SDS011;48704;50.534;6.442;2022-09-03T13:38:08;3.55;;;2.20;;
62633;SDS011;48704;50.534;6.442;2022-09-03T13:40:45;3.13;;;1.88;;
62633;SDS011;48704;50.534;6.442;2022-09-03T13:43:20;3.85;;;2.25;;
62633;SDS011;48704;50.534;6.442;2022-09-03T13:46:05;3.78;;;1.88;;
62633;SDS011;48704;50.534;6.442;2022-09-03T13:48:40;3.47;;;2.20;;
62633;SDS011;48704;50.534;6.442;2022-09-03T13:51:37;4.80;;;2.85;;
62633;SDS011;48704;50.534;6.442;2022-09-03T13:57:00;4.50;;;2.58;;
62633;SDS011;48704;50.534;6.442;2022-09-03T14:02:17;3.28;;;1.80;;
62633;SDS011;48704;50.534;6.442;2022-09-03T14:05:02;3.72;;;2.00;;
62633;SDS011;48704;50.534;6.442;2022-09-03T14:21:24;3.80;;;2.00;;
62633;SDS011;48704;50.534;6.442;2022-09-03T14:26:29;2.40;;;1.50;;
62633;SDS011;48704;50.534;6.442;2022-09-03T14:39:59;2.03;;;1.20;;
62633;SDS011;48704;50.534;6.442;2022-09-03T14:43:06;2.83;;;1.30;;
62633;SDS011;48704;50.534;6.442;2022-09-03T14:51:16;4.30;;;1.67;;
62633;SDS011;48704;50.534;6.442;2022-09-03T14:53:56;3.33;;;1.50;;
62633;SDS011;48704;50.534;6.442;2022-09-03T14:56:39;1.90;;;1.15;;
62633;SDS011;48704;50.534;6.442;2022-09-03T14:59:27;2.22;;;1.42;;
62633;SDS011;48704;50.534;6.442;2022-09-03T15:02:18;2.40;;;1.60;;
62633;SDS011;48704;50.534;6.442;2022-09-03T15:10:17;2.97;;;1.23;;
62633;SDS011;48704;50.534;6.442;2022-09-03T15:12:56;2.05;;;1.10;;
62633;SDS011;48704;50.534;6.442;2022-09-03T15:21:17;5.80;;;2.75;;
62633;SDS011;48704;50.534;6.442;2022-09-03T15:27:19;2.60;;;1.73;;
62633;SDS011;48704;50.534;6.442;2022-09-03T15:30:10;3.35;;;1.77;;
62633;SDS011;48704;50.534;6.442;2022-09-03T15:32:47;3.38;;;1.80;;
62633;SDS011;48704;50.534;6.442;2022-09-03T15:37:58;3.45;;;1.90;;
62633;SDS011;48704;50.534;6.442;2022-09-03T15:40:32;4.90;;;2.38;;
62633;SDS011;48704;50.534;6.442;2022-09-03T15:48:33;3.42;;;1.70;;
62633;SDS011;48704;50.534;6.442;2022-09-03T15:51:44;4.35;;;1.90;;
62633;SDS011;48704;50.534;6.442;2022-09-03T15:54:15;4.68;;;2.55;;
62633;SDS011;48704;50.534;6.442;2022-09-03T15:57:04;3.90;;;2.13;;
62633;SDS011;48704;50.534;6.442;2022-09-03T16:02:14;4.47;;;2.78;;
62633;SDS011;48704;50.534;6.442;2022-09-03T16:12:32;6.20;;;3.35;;
62633;SDS011;48704;50.534;6.442;2022-09-03T16:15:09;6.63;;;3.33;;
62633;SDS011;48704;50.534;6.442;2022-09-03T16:20:51;5.65;;;2.97;;
62633;SDS011;48704;50.534;6.442;2022-09-03T16:23:25;3.55;;;1.92;;
62633;SDS011;48704;50.534;6.442;2022-09-03T16:26:03;9.90;;;6.40;;
62633;SDS011;48704;50.534;6.442;2022-09-03T16:28:45;5.30;;;3.25;;
62633;SDS011;48704;50.534;6.442;2022-09-03T16:42:49;6.90;;;4.72;;
62633;SDS011;48704;50.534;6.442;2022-09-03T16:45:50;15.75;;;12.48;;
62633;SDS011;48704;50.534;6.442;2022-09-03T16:48:38;13.63;;;10.23;;
62633;SDS011;48704;50.534;6.442;2022-09-03T16:51:12;7.43;;;4.82;;
62633;SDS011;48704;50.534;6.442;2022-09-03T16:56:57;3.10;;;2.22;;
62633;SDS011;48704;50.534;6.442;2022-09-03T17:02:33;7.80;;;5.10;;
62633;SDS011;48704;50.534;6.442;2022-09-03T17:10:09;5.20;;;3.40;;
62633;SDS011;48704;50.534;6.442;2022-09-03T17:15:36;13.52;;;11.43;;
62633;SDS011;48704;50.534;6.442;2022-09-03T17:18:42;7.10;;;4.55;;
62633;SDS011;48704;50.534;6.442;2022-09-03T17:21:13;3.83;;;2.67;;
62633;SDS011;48704;50.534;6.442;2022-09-03T17:32:21;2.15;;;1.50;;
62633;SDS011;48704;50.534;6.442;2022-09-03T17:35:15;2.25;;;1.30;;
62633;SDS011;48704;50.534;6.442;2022-09-03T17:38:05;2.92;;;1.85;;
62633;SDS011;48704;50.534;6.442;2022-09-03T17:48:59;4.00;;;2.72;;
62633;SDS011;48704;50.534;6.442;2022-09-03T17:59:45;2.33;;;0.93;;
62633;SDS011;48704;50.534;6.442;2022-09-03T18:07:50;4.65;;;2.33;;
62633;SDS011;48704;50.534;6.442;2022-09-03T18:10:24;3.22;;;1.65;;
62633;SDS011;48704;50.534;6.442;2022-09-03T18:15:25;3.03;;;1.20;;
62633;SDS011;48704;50.534;6.442;2022-09-03T18:17:57;2.85;;;1.30;;
62633;SDS011;48704;50.534;6.442;2022-09-03T18:23:16;2.53;;;1.60;;
62633;SDS011;48704;50.534;6.442;2022-09-03T18:26:15;3.05;;;1.38;;
62633;SDS011;48704;50.534;6.442;2022-09-03T18:32:07;2.40;;;1.27;;
62633;SDS011;48704;50.534;6.442;2022-09-03T18:34:51;2.28;;;1.50;;
62633;SDS011;48704;50.534;6.442;2022-09-03T18:37:35;3.95;;;1.80;;
62633;SDS011;48704;50.534;6.442;2022-09-03T18:40:24;4.22;;;1.73;;
62633;SDS011;48704;50.534;6.442;2022-09-03T18:43:18;2.28;;;1.50;;
62633;SDS011;48704;50.534;6.442;2022-09-03T18:49:39;3.63;;;1.90;;
62633;SDS011;48704;50.534;6.442;2022-09-03T18:52:45;2.80;;;1.63;;
62633;SDS011;48704;50.534;6.442;2022-09-03T18:55:41;2.78;;;1.52;;
62633;SDS011;48704;50.534;6.442;2022-09-03T18:58:50;3.80;;;2.05;;
62633;SDS011;48704;50.534;6.442;2022-09-03T19:01:38;3.17;;;2.10;;
62633;SDS011;48704;50.534;6.442;2022-09-03T19:07:13;3.35;;;2.08;;
62633;SDS011;48704;50.534;6.442;2022-09-03T19:10:33;4.20;;;1.80;;
62633;SDS011;48704;50.534;6.442;2022-09-03T19:22:15;2.72;;;1.80;;
62633;SDS011;48704;50.534;6.442;2022-09-03T19:25:10;3.75;;;1.88;;
62633;SDS011;48704;50.534;6.442;2022-09-03T19:28:16;4.93;;;2.47;;
62633;SDS011;48704;50.534;6.442;2022-09-03T19:31:20;4.10;;;2.30;;
62633;SDS011;48704;50.534;6.442;2022-09-03T19:37:36;3.38;;;2.05;;
62633;SDS011;48704;50.534;6.442;2022-09-03T19:47:00;3.95;;;2.72;;
62633;SDS011;48704;50.534;6.442;2022-09-03T19:49:59;3.20;;;2.10;;
62633;SDS011;48704;50.534;6.442;2022-09-03T19:52:54;4.32;;;2.10;;
62633;SDS011;48704;50.534;6.442;2022-09-03T19:55:51;3.17;;;2.03;;
62633;SDS011;48704;50.534;6.442;2022-09-03T19:58:37;4.05;;;2.08;;
62633;SDS011;48704;50.534;6.442;2022-09-03T20:01:28;3.35;;;2.30;;
62633;SDS011;48704;50.534;6.442;2022-09-03T20:04:16;4.20;;;2.42;;
62633;SDS011;48704;50.534;6.442;2022-09-03T20:07:02;4.35;;;2.17;;
62633;SDS011;48704;50.534;6.442;2022-09-03T20:09:49;3.53;;;2.38;;
62633;SDS011;48704;50.534;6.442;2022-09-03T20:12:36;3.08;;;2.17;;
62633;SDS011;48704;50.534;6.442;2022-09-03T20:15:04;4.70;;;2.63;;
62633;SDS011;48704;50.534;6.442;2022-09-03T20:20:22;5.05;;;2.33;;
62633;SDS011;48704;50.534;6.442;2022-09-03T20:23:04;3.63;;;2.40;;
62633;SDS011;48704;50.534;6.442;2022-09-03T20:25:45;4.15;;;3.22;;
62633;SDS011;48704;50.534;6.442;2022-09-03T20:31:22;3.90;;;2.47;;
62633;SDS011;48704;50.534;6.442;2022-09-03T20:34:15;3.08;;;2.00;;
62633;SDS011;48704;50.534;6.442;2022-09-03T20:42:24;4.43;;;1.80;;
62633;SDS011;48704;50.534;6.442;2022-09-03T20:44:59;4.65;;;1.58;;
62633;SDS011;48704;50.534;6.442;2022-09-03T20:50:26;2.38;;;1.30;;
62633;SDS011;48704;50.534;6.442;2022-09-03T20:55:56;3.25;;;1.40;;
62633;SDS011;48704;50.534;6.442;2022-09-03T21:01:11;2.88;;;1.67;;
62633;SDS011;48704;50.534;6.442;2022-09-03T21:09:15;2.40;;;1.23;;